Depew, New York
Current Conditions -  °F | °C
As of 7:18 AM on Saturday 25 Oct 2014 (Local Time) from KBUF Reporting Station
Overcast Overcast  
Wind Chill: 55°   Ceiling: 1600
Heat Index: 55°   Visibility: 9mi
Dew Point: 50°   Wind: 13mph
Humidity: 83%   Direction: 240°WSW
Pressure: 29.84"   Gusts: NA
Location:  42.9°N, 78.69°W
Report Text: KBUF 251118Z 24011KT 9SM BKN016 OVC040 13/10 A2984 RMK AO2 T01280100
Loading
Personal Weather Stations






























Interactive Weather Map
Tropical Storm Tracking
New forecast layout! Learn more

10-Day Weather Forecast

Advertisements
Track Severe Weather on mobile